sensor_id;sensor_type;location;lat;lon;timestamp;pressure;altitude;pressure_sealevel;temperature;humidity
58385;BME280;44185;47.844;8.966;2023-09-18T00:00:49;95732.16;;;16.37;100.00
58385;BME280;44185;47.844;8.966;2023-09-18T00:03:15;95753.03;;;16.33;100.00
58385;BME280;44185;47.844;8.966;2023-09-18T00:05:40;95776.22;;;16.33;100.00
58385;BME280;44185;47.844;8.966;2023-09-18T00:08:06;95786.06;;;16.32;100.00
58385;BME280;44185;47.844;8.966;2023-09-18T00:10:31;95774.47;;;16.40;100.00
58385;BME280;44185;47.844;8.966;2023-09-18T00:12:58;95761.41;;;16.30;100.00
58385;BME280;44185;47.844;8.966;2023-09-18T00:15:24;95754.03;;;16.32;100.00
58385;BME280;44185;47.844;8.966;2023-09-18T00:17:49;95740.81;;;16.39;100.00
58385;BME280;44185;47.844;8.966;2023-09-18T00:20:15;95720.00;;;16.50;100.00
58385;BME280;44185;47.844;8.966;2023-09-18T00:22:40;95708.47;;;16.64;100.00
58385;BME280;44185;47.844;8.966;2023-09-18T00:25:06;95698.06;;;16.70;100.00
58385;BME280;44185;47.844;8.966;2023-09-18T00:27:31;95692.91;;;16.83;100.00
58385;BME280;44185;47.844;8.966;2023-09-18T00:29:58;95690.06;;;16.85;100.00
58385;BME280;44185;47.844;8.966;2023-09-18T00:32:24;95687.19;;;16.86;100.00
58385;BME280;44185;47.844;8.966;2023-09-18T00:34:49;95700.84;;;16.92;100.00
58385;BME280;44185;47.844;8.966;2023-09-18T00:37:15;95692.63;;;16.78;100.00
58385;BME280;44185;47.844;8.966;2023-09-18T00:39:41;95685.19;;;16.58;100.00
58385;BME280;44185;47.844;8.966;2023-09-18T00:42:07;95693.84;;;16.60;100.00
58385;BME280;44185;47.844;8.966;2023-09-18T00:44:33;95684.56;;;16.56;100.00
58385;BME280;44185;47.844;8.966;2023-09-18T00:47:00;95682.41;;;16.51;100.00
58385;BME280;44185;47.844;8.966;2023-09-18T00:49:25;95667.88;;;16.54;100.00
58385;BME280;44185;47.844;8.966;2023-09-18T00:51:51;95644.22;;;16.51;100.00
58385;BME280;44185;47.844;8.966;2023-09-18T00:54:18;95647.06;;;16.34;100.00
58385;BME280;44185;47.844;8.966;2023-09-18T00:56:44;95654.78;;;16.14;100.00
58385;BME280;44185;47.844;8.966;2023-09-18T00:59:10;95660.41;;;16.19;100.00
58385;BME280;44185;47.844;8.966;2023-09-18T01:01:37;95660.50;;;16.26;100.00
58385;BME280;44185;47.844;8.966;2023-09-18T01:04:05;95654.72;;;16.37;100.00
58385;BME280;44185;47.844;8.966;2023-09-18T01:06:30;95668.34;;;16.42;100.00
58385;BME280;44185;47.844;8.966;2023-09-18T01:08:56;95659.13;;;16.45;100.00
58385;BME280;44185;47.844;8.966;2023-09-18T01:11:26;95667.78;;;16.47;100.00
58385;BME280;44185;47.844;8.966;2023-09-18T01:14:01;95671.94;;;16.50;100.00
58385;BME280;44185;47.844;8.966;2023-09-18T01:16:33;95659.13;;;16.45;100.00
58385;BME280;44185;47.844;8.966;2023-09-18T01:19:00;95650.75;;;16.48;100.00
58385;BME280;44185;47.844;8.966;2023-09-18T01:21:26;95640.53;;;16.21;100.00
58385;BME280;44185;47.844;8.966;2023-09-18T01:23:53;95637.72;;;15.99;100.00
58385;BME280;44185;47.844;8.966;2023-09-18T01:26:19;95633.09;;;15.93;100.00
58385;BME280;44185;47.844;8.966;2023-09-18T01:28:44;95631.19;;;16.02;100.00
58385;BME280;44185;47.844;8.966;2023-09-18T01:31:09;95629.81;;;16.06;100.00
58385;BME280;44185;47.844;8.966;2023-09-18T01:33:37;95605.91;;;16.13;100.00
58385;BME280;44185;47.844;8.966;2023-09-18T01:36:06;95594.50;;;16.19;100.00
58385;BME280;44185;47.844;8.966;2023-09-18T01:38:32;95580.06;;;16.14;100.00
58385;BME280;44185;47.844;8.966;2023-09-18T01:40:59;95585.28;;;16.07;100.00
58385;BME280;44185;47.844;8.966;2023-09-18T01:43:26;95582.13;;;16.03;100.00
58385;BME280;44185;47.844;8.966;2023-09-18T01:45:52;95594.81;;;16.01;100.00
58385;BME280;44185;47.844;8.966;2023-09-18T01:48:18;95591.25;;;16.09;100.00
58385;BME280;44185;47.844;8.966;2023-09-18T01:50:43;95588.50;;;16.17;100.00
58385;BME280;44185;47.844;8.966;2023-09-18T01:53:09;95587.94;;;16.22;100.00
58385;BME280;44185;47.844;8.966;2023-09-18T01:55:34;95598.63;;;16.22;100.00
58385;BME280;44185;47.844;8.966;2023-09-18T01:58:01;95602.88;;;16.16;100.00
58385;BME280;44185;47.844;8.966;2023-09-18T02:00:27;95608.22;;;16.16;100.00
58385;BME280;44185;47.844;8.966;2023-09-18T02:02:52;95604.44;;;16.26;100.00
58385;BME280;44185;47.844;8.966;2023-09-18T02:05:18;95608.59;;;16.28;100.00
58385;BME280;44185;47.844;8.966;2023-09-18T02:07:43;95626.16;;;16.22;100.00
58385;BME280;44185;47.844;8.966;2023-09-18T02:10:09;95629.09;;;16.12;100.00
58385;BME280;44185;47.844;8.966;2023-09-18T02:12:34;95630.09;;;16.11;100.00
58385;BME280;44185;47.844;8.966;2023-09-18T02:15:01;95622.66;;;16.22;100.00
58385;BME280;44185;47.844;8.966;2023-09-18T02:17:27;95607.41;;;16.16;100.00
58385;BME280;44185;47.844;8.966;2023-09-18T02:19:52;95599.19;;;16.17;100.00
58385;BME280;44185;47.844;8.966;2023-09-18T02:22:18;95595.81;;;16.08;100.00
58385;BME280;44185;47.844;8.966;2023-09-18T02:24:43;95596.50;;;16.02;100.00
58385;BME280;44185;47.844;8.966;2023-09-18T02:27:09;95594.66;;;16.03;100.00
58385;BME280;44185;47.844;8.966;2023-09-18T02:29:34;95594.28;;;16.06;100.00
58385;BME280;44185;47.844;8.966;2023-09-18T02:32:01;95593.13;;;16.08;100.00
58385;BME280;44185;47.844;8.966;2023-09-18T02:34:27;95590.91;;;16.12;100.00
58385;BME280;44185;47.844;8.966;2023-09-18T02:36:52;95606.00;;;16.20;100.00
58385;BME280;44185;47.844;8.966;2023-09-18T02:39:18;95611.41;;;16.11;100.00
58385;BME280;44185;47.844;8.966;2023-09-18T02:41:43;95611.63;;;16.10;100.00
58385;BME280;44185;47.844;8.966;2023-09-18T02:44:09;95600.59;;;16.13;100.00
58385;BME280;44185;47.844;8.966;2023-09-18T02:46:34;95594.50;;;16.19;100.00
58385;BME280;44185;47.844;8.966;2023-09-18T02:49:01;95586.63;;;15.87;100.00
58385;BME280;44185;47.844;8.966;2023-09-18T02:51:26;95589.47;;;15.86;100.00
58385;BME280;44185;47.844;8.966;2023-09-18T02:53:52;95593.63;;;15.88;100.00
58385;BME280;44185;47.844;8.966;2023-09-18T02:56:18;95603.91;;;15.76;100.00
58385;BME280;44185;47.844;8.966;2023-09-18T02:58:43;95603.47;;;15.88;100.00
58385;BME280;44185;47.844;8.966;2023-09-18T03:01:09;95620.22;;;15.82;100.00
58385;BME280;44185;47.844;8.966;2023-09-18T03:03:34;95626.00;;;15.85;100.00
58385;BME280;44185;47.844;8.966;2023-09-18T03:06:02;95639.16;;;15.87;100.00
58385;BME280;44185;47.844;8.966;2023-09-18T03:08:27;95666.28;;;15.90;100.00
58385;BME280;44185;47.844;8.966;2023-09-18T03:10:53;95678.28;;;15.95;100.00
58385;BME280;44185;47.844;8.966;2023-09-18T03:13:18;95689.66;;;15.88;100.00
58385;BME280;44185;47.844;8.966;2023-09-18T03:15:45;95699.50;;;15.88;100.00
58385;BME280;44185;47.844;8.966;2023-09-18T03:18:10;95703.19;;;15.87;100.00
58385;BME280;44185;47.844;8.966;2023-09-18T03:20:36;95697.19;;;15.85;100.00
58385;BME280;44185;47.844;8.966;2023-09-18T03:23:03;95687.34;;;15.85;100.00
58385;BME280;44185;47.844;8.966;2023-09-18T03:25:28;95685.53;;;15.86;100.00
58385;BME280;44185;47.844;8.966;2023-09-18T03:27:55;95677.59;;;15.93;100.00
58385;BME280;44185;47.844;8.966;2023-09-18T03:30:22;95683.63;;;15.95;100.00
58385;BME280;44185;47.844;8.966;2023-09-18T03:32:47;95679.22;;;16.02;100.00
58385;BME280;44185;47.844;8.966;2023-09-18T03:35:13;95676.22;;;16.05;100.00
58385;BME280;44185;47.844;8.966;2023-09-18T03:37:38;95670.44;;;15.93;100.00
58385;BME280;44185;47.844;8.966;2023-09-18T03:40:07;95674.38;;;15.82;100.00
58385;BME280;44185;47.844;8.966;2023-09-18T03:42:33;95671.53;;;15.84;100.00
58385;BME280;44185;47.844;8.966;2023-09-18T03:44:58;95672.38;;;15.84;100.00
58385;BME280;44185;47.844;8.966;2023-09-18T03:47:24;95677.16;;;15.89;100.00
58385;BME280;44185;47.844;8.966;2023-09-18T03:49:49;95670.09;;;15.96;100.00
58385;BME280;44185;47.844;8.966;2023-09-18T03:52:14;95663.97;;;15.87;100.00
58385;BME280;44185;47.844;8.966;2023-09-18T03:54:40;95653.50;;;15.86;100.00
58385;BME280;44185;47.844;8.966;2023-09-18T03:57:07;95657.84;;;15.87;100.00
58385;BME280;44185;47.844;8.966;2023-09-18T03:59:33;95667.56;;;15.79;100.00
58385;BME280;44185;47.844;8.966;2023-09-18T04:01:58;95678.41;;;15.78;100.00
58385;BME280;44185;47.844;8.966;2023-09-18T04:04:24;95670.69;;;15.83;100.00
58385;BME280;44185;47.844;8.966;2023-09-18T04:06:49;95666.13;;;15.68;100.00
58385;BME280;44185;47.844;8.966;2023-09-18T04:09:15;95677.22;;;15.81;100.00
58385;BME280;44185;47.844;8.966;2023-09-18T04:11:40;95668.22;;;15.82;100.00
58385;BME280;44185;47.844;8.966;2023-09-18T04:14:07;95673.56;;;15.82;100.00
58385;BME280;44185;47.844;8.966;2023-09-18T04:16:33;95674.19;;;15.84;100.00
58385;BME280;44185;47.844;8.966;2023-09-18T04:18:58;95670.88;;;15.82;100.00
58385;BME280;44185;47.844;8.966;2023-09-18T04:21:24;95659.25;;;15.74;100.00
58385;BME280;44185;47.844;8.966;2023-09-18T04:23:49;95659.19;;;15.83;100.00
58385;BME280;44185;47.844;8.966;2023-09-18T04:26:15;95660.16;;;15.66;100.00
58385;BME280;44185;47.844;8.966;2023-09-18T04:28:40;95664.75;;;15.57;100.00
58385;BME280;44185;47.844;8.966;2023-09-18T04:31:07;95662.53;;;15.61;100.00
58385;BME280;44185;47.844;8.966;2023-09-18T04:33:33;95655.63;;;15.52;100.00
58385;BME280;44185;47.844;8.966;2023-09-18T04:35:58;95654.28;;;15.48;100.00
58385;BME280;44185;47.844;8.966;2023-09-18T04:38:24;95655.13;;;15.48;100.00
58385;BME280;44185;47.844;8.966;2023-09-18T04:40:49;95656.75;;;15.57;100.00
58385;BME280;44185;47.844;8.966;2023-09-18T04:43:22;95650.56;;;15.57;100.00
58385;BME280;44185;47.844;8.966;2023-09-18T04:45:48;95664.06;;;15.55;100.00
58385;BME280;44185;47.844;8.966;2023-09-18T04:48:15;95664.44;;;15.52;100.00
58385;BME280;44185;47.844;8.966;2023-09-18T04:50:40;95677.47;;;15.47;100.00
58385;BME280;44185;47.844;8.966;2023-09-18T04:53:05;95685.00;;;15.43;100.00
58385;BME280;44185;47.844;8.966;2023-09-18T04:55:31;95679.97;;;15.49;100.00
58385;BME280;44185;47.844;8.966;2023-09-18T04:57:56;95688.66;;;15.42;100.00
58385;BME280;44185;47.844;8.966;2023-09-18T05:00:22;95693.53;;;15.39;100.00
58385;BME280;44185;47.844;8.966;2023-09-18T05:02:48;95695.28;;;15.23;100.00
58385;BME280;44185;47.844;8.966;2023-09-18T05:05:15;95701.91;;;15.27;100.00
58385;BME280;44185;47.844;8.966;2023-09-18T05:07:40;95698.91;;;15.30;100.00
58385;BME280;44185;47.844;8.966;2023-09-18T05:10:06;95696.09;;;15.23;100.00
58385;BME280;44185;47.844;8.966;2023-09-18T05:12:32;95695.31;;;15.15;100.00
58385;BME280;44185;47.844;8.966;2023-09-18T05:14:57;95700.00;;;15.12;100.00
58385;BME280;44185;47.844;8.966;2023-09-18T05:17:39;95698.31;;;15.20;100.00
58385;BME280;44185;47.844;8.966;2023-09-18T05:20:05;95700.66;;;15.15;100.00
58385;BME280;44185;47.844;8.966;2023-09-18T05:22:32;95696.94;;;15.24;100.00
58385;BME280;44185;47.844;8.966;2023-09-18T05:24:58;95694.22;;;15.32;100.00
58385;BME280;44185;47.844;8.966;2023-09-18T05:27:23;95700.03;;;15.36;100.00
58385;BME280;44185;47.844;8.966;2023-09-18T05:29:49;95698.25;;;15.28;100.00
58385;BME280;44185;47.844;8.966;2023-09-18T05:32:14;95701.88;;;15.36;100.00
58385;BME280;44185;47.844;8.966;2023-09-18T05:34:39;95715.31;;;15.42;100.00
58385;BME280;44185;47.844;8.966;2023-09-18T05:37:05;95719.47;;;15.45;100.00
58385;BME280;44185;47.844;8.966;2023-09-18T05:39:32;95730.97;;;15.45;100.00
58385;BME280;44185;47.844;8.966;2023-09-18T05:41:57;95727.31;;;15.47;100.00
58385;BME280;44185;47.844;8.966;2023-09-18T05:44:23;95732.22;;;15.58;100.00
58385;BME280;44185;47.844;8.966;2023-09-18T05:46:48;95723.81;;;15.70;100.00
58385;BME280;44185;47.844;8.966;2023-09-18T05:49:14;95735.91;;;15.81;100.00
58385;BME280;44185;47.844;8.966;2023-09-18T05:51:39;95731.47;;;15.73;100.00
58385;BME280;44185;47.844;8.966;2023-09-18T05:54:05;95729.28;;;15.76;100.00
58385;BME280;44185;47.844;8.966;2023-09-18T05:56:32;95724.81;;;15.68;100.00
58385;BME280;44185;47.844;8.966;2023-09-18T05:58:57;95726.13;;;15.73;100.00
58385;BME280;44185;47.844;8.966;2023-09-18T06:01:23;95720.56;;;15.83;100.00
58385;BME280;44185;47.844;8.966;2023-09-18T06:03:48;95716.16;;;15.90;100.00
58385;BME280;44185;47.844;8.966;2023-09-18T06:06:13;95714.06;;;16.00;100.00
58385;BME280;44185;47.844;8.966;2023-09-18T06:08:39;95702.91;;;16.05;100.00
58385;BME280;44185;47.844;8.966;2023-09-18T06:11:04;95696.69;;;16.05;100.00
58385;BME280;44185;47.844;8.966;2023-09-18T06:13:31;95693.34;;;16.11;100.00
58385;BME280;44185;47.844;8.966;2023-09-18T06:15:56;95704.47;;;16.15;100.00
58385;BME280;44185;47.844;8.966;2023-09-18T06:18:22;95702.44;;;16.17;100.00
58385;BME280;44185;47.844;8.966;2023-09-18T06:20:48;95702.94;;;16.20;100.00
58385;BME280;44185;47.844;8.966;2023-09-18T06:23:14;95707.91;;;16.23;100.00
58385;BME280;44185;47.844;8.966;2023-09-18T06:25:39;95708.91;;;16.22;100.00
58385;BME280;44185;47.844;8.966;2023-09-18T06:28:05;95710.03;;;16.28;100.00
58385;BME280;44185;47.844;8.966;2023-09-18T06:30:32;95727.16;;;16.34;100.00
58385;BME280;44185;47.844;8.966;2023-09-18T06:32:58;95737.66;;;16.36;100.00
58385;BME280;44185;47.844;8.966;2023-09-18T06:35:26;95744.59;;;16.45;100.00
58385;BME280;44185;47.844;8.966;2023-09-18T06:37:52;95743.03;;;16.51;100.00
58385;BME280;44185;47.844;8.966;2023-09-18T06:40:18;95747.81;;;16.55;100.00
58385;BME280;44185;47.844;8.966;2023-09-18T06:42:43;95749.75;;;16.62;100.00
58385;BME280;44185;47.844;8.966;2023-09-18T06:45:09;95762.19;;;16.70;100.00
58385;BME280;44185;47.844;8.966;2023-09-18T06:47:36;95774.19;;;16.74;100.00
58385;BME280;44185;47.844;8.966;2023-09-18T06:50:01;95787.00;;;16.78;100.00
58385;BME280;44185;47.844;8.966;2023-09-18T06:52:28;95783.75;;;16.83;100.00
58385;BME280;44185;47.844;8.966;2023-09-18T06:54:53;95775.75;;;16.83;100.00
58385;BME280;44185;47.844;8.966;2023-09-18T06:57:19;95779.09;;;16.85;100.00
58385;BME280;44185;47.844;8.966;2023-09-18T06:59:44;95795.00;;;16.94;100.00
58385;BME280;44185;47.844;8.966;2023-09-18T07:02:10;95800.91;;;16.89;100.00
58385;BME280;44185;47.844;8.966;2023-09-18T07:04:37;95789.03;;;16.92;100.00
58385;BME280;44185;47.844;8.966;2023-09-18T07:07:02;95792.59;;;16.99;100.00
58385;BME280;44185;47.844;8.966;2023-09-18T07:09:28;95792.59;;;16.99;100.00
58385;BME280;44185;47.844;8.966;2023-09-18T07:11:53;95787.47;;;16.97;100.00
58385;BME280;44185;47.844;8.966;2023-09-18T07:14:19;95802.09;;;17.01;100.00
58385;BME280;44185;47.844;8.966;2023-09-18T07:16:44;95805.44;;;17.04;100.00
58385;BME280;44185;47.844;8.966;2023-09-18T07:19:09;95803.78;;;17.03;100.00
58385;BME280;44185;47.844;8.966;2023-09-18T07:21:36;95793.16;;;17.09;100.00
58385;BME280;44185;47.844;8.966;2023-09-18T07:24:02;95798.06;;;17.06;100.00
58385;BME280;44185;47.844;8.966;2023-09-18T07:26:27;95803.22;;;17.07;100.00
58385;BME280;44185;47.844;8.966;2023-09-18T07:28:53;95820.91;;;17.08;100.00
58385;BME280;44185;47.844;8.966;2023-09-18T07:31:18;95830.06;;;17.14;100.00
58385;BME280;44185;47.844;8.966;2023-09-18T07:33:44;95841.75;;;17.13;100.00
58385;BME280;44185;47.844;8.966;2023-09-18T07:36:09;95842.91;;;17.19;100.00
58385;BME280;44185;47.844;8.966;2023-09-18T07:38:36;95835.78;;;17.26;100.00
58385;BME280;44185;47.844;8.966;2023-09-18T07:41:01;95827.19;;;17.31;100.00
58385;BME280;44185;47.844;8.966;2023-09-18T07:43:27;95835.91;;;17.33;100.00
58385;BME280;44185;47.844;8.966;2023-09-18T07:45:53;95864.75;;;17.38;100.00
58385;BME280;44185;47.844;8.966;2023-09-18T07:48:18;95885.78;;;17.41;100.00
58385;BME280;44185;47.844;8.966;2023-09-18T07:50:44;95866.88;;;17.42;100.00
58385;BME280;44185;47.844;8.966;2023-09-18T07:53:09;95849.81;;;17.43;100.00
58385;BME280;44185;47.844;8.966;2023-09-18T07:55:36;95849.81;;;17.43;100.00
58385;BME280;44185;47.844;8.966;2023-09-18T07:58:02;95849.63;;;17.45;100.00
58385;BME280;44185;47.844;8.966;2023-09-18T08:00:27;95846.31;;;17.43;100.00
58385;BME280;44185;47.844;8.966;2023-09-18T08:02:55;95840.75;;;17.44;100.00
58385;BME280;44185;47.844;8.966;2023-09-18T08:05:20;95838.34;;;17.50;100.00
58385;BME280;44185;47.844;8.966;2023-09-18T08:07:46;95841.22;;;17.48;100.00
58385;BME280;44185;47.844;8.966;2023-09-18T08:10:11;95859.94;;;17.48;100.00
58385;BME280;44185;47.844;8.966;2023-09-18T08:12:38;95856.63;;;17.46;100.00
58385;BME280;44185;47.844;8.966;2023-09-18T08:15:04;95871.22;;;17.43;100.00
58385;BME280;44185;47.844;8.966;2023-09-18T08:17:29;95874.06;;;17.42;100.00
58385;BME280;44185;47.844;8.966;2023-09-18T08:19:55;95868.53;;;17.43;100.00
58385;BME280;44185;47.844;8.966;2023-09-18T08:22:20;95880.16;;;17.36;100.00
58385;BME280;44185;47.844;8.966;2023-09-18T08:24:46;95890.66;;;17.37;100.00
58385;BME280;44185;47.844;8.966;2023-09-18T08:27:15;95887.22;;;17.28;100.00
58385;BME280;44185;47.844;8.966;2023-09-18T08:29:42;95876.69;;;17.11;100.00
58385;BME280;44185;47.844;8.966;2023-09-18T08:32:07;95871.25;;;17.05;100.00
58385;BME280;44185;47.844;8.966;2023-09-18T08:34:33;95889.41;;;17.09;100.00
58385;BME280;44185;47.844;8.966;2023-09-18T08:36:58;95910.31;;;16.90;100.00
58385;BME280;44185;47.844;8.966;2023-09-18T08:39:24;95906.31;;;16.86;100.00
58385;BME280;44185;47.844;8.966;2023-09-18T08:41:51;95880.41;;;16.72;100.00
58385;BME280;44185;47.844;8.966;2023-09-18T08:44:17;95894.97;;;16.69;100.00
58385;BME280;44185;47.844;8.966;2023-09-18T08:46:44;95898.34;;;16.63;100.00
58385;BME280;44185;47.844;8.966;2023-09-18T08:49:11;95888.06;;;16.51;100.00
58385;BME280;44185;47.844;8.966;2023-09-18T08:51:37;95896.91;;;16.52;100.00
58385;BME280;44185;47.844;8.966;2023-09-18T08:54:04;95916.97;;;16.48;100.00
58385;BME280;44185;47.844;8.966;2023-09-18T08:56:31;95918.03;;;16.38;100.00
58385;BME280;44185;47.844;8.966;2023-09-18T08:58:56;95917.50;;;16.43;100.00
58385;BME280;44185;47.844;8.966;2023-09-18T09:01:22;95921.25;;;16.33;100.00
58385;BME280;44185;47.844;8.966;2023-09-18T09:03:49;95934.78;;;16.32;100.00
58385;BME280;44185;47.844;8.966;2023-09-18T09:06:15;95947.91;;;16.42;100.00
58385;BME280;44185;47.844;8.966;2023-09-18T09:08:40;95937.56;;;16.39;100.00
58385;BME280;44185;47.844;8.966;2023-09-18T09:11:06;95939.59;;;16.37;100.00
58385;BME280;44185;47.844;8.966;2023-09-18T09:13:31;95941.53;;;16.43;100.00
58385;BME280;44185;47.844;8.966;2023-09-18T09:15:58;95950.78;;;16.32;100.00
58385;BME280;44185;47.844;8.966;2023-09-18T09:18:25;95955.94;;;16.33;100.00
58385;BME280;44185;47.844;8.966;2023-09-18T09:20:56;95968.66;;;16.31;100.00
58385;BME280;44185;47.844;8.966;2023-09-18T09:23:22;95979.69;;;16.28;100.00
58385;BME280;44185;47.844;8.966;2023-09-18T09:25:48;95973.38;;;16.21;100.00
58385;BME280;44185;47.844;8.966;2023-09-18T09:28:13;95982.91;;;16.15;100.00
58385;BME280;44185;47.844;8.966;2023-09-18T09:30:39;95985.75;;;16.14;100.00
58385;BME280;44185;47.844;8.966;2023-09-18T09:33:05;95984.94;;;16.13;100.00
58385;BME280;44185;47.844;8.966;2023-09-18T09:35:32;95986.53;;;16.22;100.00
58385;BME280;44185;47.844;8.966;2023-09-18T09:38:00;95996.91;;;16.17;100.00
58385;BME280;44185;47.844;8.966;2023-09-18T09:40:27;96001.81;;;16.05;100.00
58385;BME280;44185;47.844;8.966;2023-09-18T09:42:55;95995.94;;;16.10;100.00
58385;BME280;44185;47.844;8.966;2023-09-18T09:45:21;95989.97;;;16.08;100.00
58385;BME280;44185;47.844;8.966;2023-09-18T09:47:46;95980.06;;;16.17;100.00
58385;BME280;44185;47.844;8.966;2023-09-18T09:50:13;95988.38;;;16.22;100.00
58385;BME280;44185;47.844;8.966;2023-09-18T09:52:43;95986.53;;;16.22;100.00
58385;BME280;44185;47.844;8.966;2023-09-18T09:55:22;95975.22;;;16.20;100.00
58385;BME280;44185;47.844;8.966;2023-09-18T09:57:50;95986.56;;;16.14;100.00
58385;BME280;44185;47.844;8.966;2023-09-18T10:00:15;95965.22;;;16.14;100.00
58385;BME280;44185;47.844;8.966;2023-09-18T10:02:41;95950.19;;;16.21;100.00
58385;BME280;44185;47.844;8.966;2023-09-18T10:05:07;95958.06;;;16.15;100.00
58385;BME280;44185;47.844;8.966;2023-09-18T10:07:33;95971.94;;;16.10;100.00
58385;BME280;44185;47.844;8.966;2023-09-18T10:09:59;95961.88;;;16.20;100.00
58385;BME280;44185;47.844;8.966;2023-09-18T10:12:26;95957.00;;;16.24;100.00
58385;BME280;44185;47.844;8.966;2023-09-18T10:14:53;95962.16;;;16.26;100.00
58385;BME280;44185;47.844;8.966;2023-09-18T10:17:21;95958.81;;;16.32;100.00
58385;BME280;44185;47.844;8.966;2023-09-18T10:19:51;95964.25;;;16.39;100.00
58385;BME280;44185;47.844;8.966;2023-09-18T10:22:24;95941.22;;;16.38;100.00
58385;BME280;44185;47.844;8.966;2023-09-18T10:24:54;95917.97;;;16.23;100.00
58385;BME280;44185;47.844;8.966;2023-09-18T10:27:23;95925.47;;;16.19;100.00
58385;BME280;44185;47.844;8.966;2023-09-18T10:29:52;95945.03;;;16.11;100.00
58385;BME280;44185;47.844;8.966;2023-09-18T10:32:19;95969.75;;;16.14;100.00
58385;BME280;44185;47.844;8.966;2023-09-18T10:34:45;95987.72;;;16.20;100.00
58385;BME280;44185;47.844;8.966;2023-09-18T10:37:12;95988.91;;;16.17;100.00
58385;BME280;44185;47.844;8.966;2023-09-18T10:39:38;95997.41;;;16.21;100.00
58385;BME280;44185;47.844;8.966;2023-09-18T10:42:07;95989.69;;;16.26;100.00
58385;BME280;44185;47.844;8.966;2023-09-18T10:44:33;95976.19;;;16.19;100.00
58385;BME280;44185;47.844;8.966;2023-09-18T10:47:01;96002.25;;;16.17;100.00
58385;BME280;44185;47.844;8.966;2023-09-18T10:49:27;96000.53;;;16.25;100.00
58385;BME280;44185;47.844;8.966;2023-09-18T10:51:54;96017.06;;;16.28;100.00
58385;BME280;44185;47.844;8.966;2023-09-18T10:54:22;96016.41;;;16.26;100.00
58385;BME280;44185;47.844;8.966;2023-09-18T10:56:48;96000.66;;;16.40;100.00
58385;BME280;44185;47.844;8.966;2023-09-18T10:59:14;96004.19;;;16.32;100.00
58385;BME280;44185;47.844;8.966;2023-09-18T11:01:40;96008.09;;;16.21;100.00
58385;BME280;44185;47.844;8.966;2023-09-18T11:04:08;96001.38;;;16.25;100.00
58385;BME280;44185;47.844;8.966;2023-09-18T11:07:01;95994.53;;;16.22;100.00
58385;BME280;44185;47.844;8.966;2023-09-18T11:09:28;95985.38;;;16.17;100.00
58385;BME280;44185;47.844;8.966;2023-09-18T11:11:54;95982.69;;;16.25;100.00
58385;BME280;44185;47.844;8.966;2023-09-18T11:14:19;95974.88;;;16.23;100.00
58385;BME280;44185;47.844;8.966;2023-09-18T11:16:49;95979.84;;;16.27;100.00
58385;BME280;44185;47.844;8.966;2023-09-18T11:19:17;95972.53;;;16.20;100.00
58385;BME280;44185;47.844;8.966;2023-09-18T11:21:43;95968.88;;;16.21;100.00
58385;BME280;44185;47.844;8.966;2023-09-18T11:24:16;95947.22;;;16.16;100.00
58385;BME280;44185;47.844;8.966;2023-09-18T11:29:13;95944.16;;;16.19;100.00
58385;BME280;44185;47.844;8.966;2023-09-18T11:31:44;95927.50;;;16.17;100.00
58385;BME280;44185;47.844;8.966;2023-09-18T11:34:14;95909.06;;;16.07;100.00
58385;BME280;44185;47.844;8.966;2023-09-18T11:36:41;95891.00;;;16.09;100.00
58385;BME280;44185;47.844;8.966;2023-09-18T11:39:07;95880.53;;;16.08;100.00
58385;BME280;44185;47.844;8.966;2023-09-18T11:41:34;95871.03;;;16.05;100.00
58385;BME280;44185;47.844;8.966;2023-09-18T11:44:33;95893.03;;;16.07;100.00
58385;BME280;44185;47.844;8.966;2023-09-18T11:46:59;95926.75;;;16.08;100.00
58385;BME280;44185;47.844;8.966;2023-09-18T11:49:25;95941.38;;;16.12;100.00
58385;BME280;44185;47.844;8.966;2023-09-18T11:51:52;95949.56;;;16.11;100.00
58385;BME280;44185;47.844;8.966;2023-09-18T11:54:18;95952.25;;;16.11;100.00
58385;BME280;44185;47.844;8.966;2023-09-18T11:56:44;95972.66;;;16.27;100.00
58385;BME280;44185;47.844;8.966;2023-09-18T11:59:10;95986.50;;;16.31;100.00
58385;BME280;44185;47.844;8.966;2023-09-18T12:01:35;95971.66;;;16.28;100.00
58385;BME280;44185;47.844;8.966;2023-09-18T12:04:02;95950.66;;;16.25;100.00
58385;BME280;44185;47.844;8.966;2023-09-18T12:06:28;95934.97;;;16.22;100.00
58385;BME280;44185;47.844;8.966;2023-09-18T12:08:55;95938.66;;;16.21;100.00
58385;BME280;44185;47.844;8.966;2023-09-18T12:11:20;95926.28;;;16.28;100.00
58385;BME280;44185;47.844;8.966;2023-09-18T12:13:46;95925.44;;;16.28;100.00
58385;BME280;44185;47.844;8.966;2023-09-18T12:16:11;95912.69;;;16.38;100.00
58385;BME280;44185;47.844;8.966;2023-09-18T12:18:44;95903.72;;;16.54;100.00
58385;BME280;44185;47.844;8.966;2023-09-18T12:21:10;95928.50;;;16.48;100.00
58385;BME280;44185;47.844;8.966;2023-09-18T12:23:39;95944.59;;;16.63;100.00
58385;BME280;44185;47.844;8.966;2023-09-18T12:26:06;95951.06;;;16.69;100.00
58385;BME280;44185;47.844;8.966;2023-09-18T12:28:33;95955.38;;;16.70;100.00
58385;BME280;44185;47.844;8.966;2023-09-18T12:30:58;95936.91;;;16.60;100.00
58385;BME280;44185;47.844;8.966;2023-09-18T12:33:24;95928.50;;;16.72;100.00
58385;BME280;44185;47.844;8.966;2023-09-18T12:35:50;95921.97;;;16.74;100.00
58385;BME280;44185;47.844;8.966;2023-09-18T12:38:17;95916.84;;;16.88;100.00
58385;BME280;44185;47.844;8.966;2023-09-18T12:40:42;95903.94;;;16.92;100.00
58385;BME280;44185;47.844;8.966;2023-09-18T12:43:10;95897.69;;;16.99;100.00
58385;BME280;44185;47.844;8.966;2023-09-18T12:45:36;95900.91;;;16.95;100.00
58385;BME280;44185;47.844;8.966;2023-09-18T12:48:03;95902.28;;;16.90;100.00